sensor_id;sensor_type;location;lat;lon;timestamp;P1;durP1;ratioP1;P2;durP2;ratioP2
37231;SDS011;23125;48.156;15.954;2022-12-18T00:01:19;36.40;;;18.98;;
37231;SDS011;23125;48.156;15.954;2022-12-18T00:03:53;36.38;;;19.52;;
37231;SDS011;23125;48.156;15.954;2022-12-18T00:06:21;38.75;;;19.42;;
37231;SDS011;23125;48.156;15.954;2022-12-18T00:08:48;32.30;;;18.48;;
37231;SDS011;23125;48.156;15.954;2022-12-18T00:11:15;33.97;;;17.85;;
37231;SDS011;23125;48.156;15.954;2022-12-18T00:13:43;37.70;;;18.50;;
37231;SDS011;23125;48.156;15.954;2022-12-18T00:16:12;35.53;;;17.08;;
37231;SDS011;23125;48.156;15.954;2022-12-18T00:18:40;33.42;;;16.75;;
37231;SDS011;23125;48.156;15.954;2022-12-18T00:21:07;29.40;;;14.10;;
37231;SDS011;23125;48.156;15.954;2022-12-18T00:23:35;24.20;;;14.43;;
37231;SDS011;23125;48.156;15.954;2022-12-18T00:26:03;26.88;;;14.05;;
37231;SDS011;23125;48.156;15.954;2022-12-18T00:28:31;26.40;;;14.05;;
37231;SDS011;23125;48.156;15.954;2022-12-18T00:31:04;29.55;;;14.70;;
37231;SDS011;23125;48.156;15.954;2022-12-18T00:33:32;26.60;;;14.60;;
37231;SDS011;23125;48.156;15.954;2022-12-18T00:38:28;26.37;;;14.80;;
37231;SDS011;23125;48.156;15.954;2022-12-18T00:40:54;26.10;;;13.77;;
37231;SDS011;23125;48.156;15.954;2022-12-18T00:43:19;32.83;;;14.50;;
37231;SDS011;23125;48.156;15.954;2022-12-18T00:45:45;28.08;;;13.70;;
37231;SDS011;23125;48.156;15.954;2022-12-18T00:48:11;26.23;;;14.70;;
37231;SDS011;23125;48.156;15.954;2022-12-18T00:50:37;23.63;;;13.55;;
37231;SDS011;23125;48.156;15.954;2022-12-18T00:53:03;28.88;;;14.00;;
37231;SDS011;23125;48.156;15.954;2022-12-18T00:55:29;24.10;;;12.90;;
37231;SDS011;23125;48.156;15.954;2022-12-18T00:57:55;25.70;;;13.20;;
37231;SDS011;23125;48.156;15.954;2022-12-18T01:00:21;23.13;;;12.18;;
37231;SDS011;23125;48.156;15.954;2022-12-18T01:02:47;28.70;;;13.90;;
37231;SDS011;23125;48.156;15.954;2022-12-18T01:05:13;27.45;;;13.35;;
37231;SDS011;23125;48.156;15.954;2022-12-18T01:07:39;21.50;;;11.20;;
37231;SDS011;23125;48.156;15.954;2022-12-18T01:10:06;17.50;;;9.63;;
37231;SDS011;23125;48.156;15.954;2022-12-18T01:12:34;13.43;;;7.77;;
37231;SDS011;23125;48.156;15.954;2022-12-18T01:15:00;20.63;;;9.95;;
37231;SDS011;23125;48.156;15.954;2022-12-18T01:17:27;16.13;;;8.13;;
37231;SDS011;23125;48.156;15.954;2022-12-18T01:19:53;18.27;;;9.27;;
37231;SDS011;23125;48.156;15.954;2022-12-18T01:22:18;22.98;;;10.70;;
37231;SDS011;23125;48.156;15.954;2022-12-18T01:24:44;20.00;;;10.60;;
37231;SDS011;23125;48.156;15.954;2022-12-18T01:27:10;23.52;;;11.93;;
37231;SDS011;23125;48.156;15.954;2022-12-18T01:29:36;23.17;;;11.75;;
37231;SDS011;23125;48.156;15.954;2022-12-18T01:32:02;23.05;;;11.13;;
37231;SDS011;23125;48.156;15.954;2022-12-18T01:34:28;22.52;;;11.75;;
37231;SDS011;23125;48.156;15.954;2022-12-18T01:36:54;25.27;;;11.85;;
37231;SDS011;23125;48.156;15.954;2022-12-18T01:39:20;24.20;;;11.75;;
37231;SDS011;23125;48.156;15.954;2022-12-18T01:41:46;22.00;;;11.75;;
37231;SDS011;23125;48.156;15.954;2022-12-18T01:50:25;21.98;;;10.02;;
37231;SDS011;23125;48.156;15.954;2022-12-18T01:55:30;20.08;;;10.13;;
37231;SDS011;23125;48.156;15.954;2022-12-18T01:58:01;17.55;;;9.95;;
37231;SDS011;23125;48.156;15.954;2022-12-18T02:00:27;16.00;;;8.93;;
37231;SDS011;23125;48.156;15.954;2022-12-18T02:02:53;18.67;;;9.05;;
37231;SDS011;23125;48.156;15.954;2022-12-18T02:05:29;19.55;;;9.15;;
37231;SDS011;23125;48.156;15.954;2022-12-18T02:11:06;18.13;;;8.85;;
37231;SDS011;23125;48.156;15.954;2022-12-18T02:16:39;14.35;;;7.45;;
37231;SDS011;23125;48.156;15.954;2022-12-18T02:27:49;15.88;;;8.00;;
37231;SDS011;23125;48.156;15.954;2022-12-18T02:30:17;17.63;;;7.90;;
37231;SDS011;23125;48.156;15.954;2022-12-18T02:32:46;14.00;;;7.10;;
37231;SDS011;23125;48.156;15.954;2022-12-18T02:35:20;13.85;;;7.35;;
37231;SDS011;23125;48.156;15.954;2022-12-18T02:37:49;14.73;;;7.15;;
37231;SDS011;23125;48.156;15.954;2022-12-18T02:40:19;16.17;;;6.82;;
37231;SDS011;23125;48.156;15.954;2022-12-18T02:42:47;15.13;;;7.85;;
37231;SDS011;23125;48.156;15.954;2022-12-18T02:45:13;15.25;;;7.68;;
37231;SDS011;23125;48.156;15.954;2022-12-18T02:47:39;15.82;;;7.70;;
37231;SDS011;23125;48.156;15.954;2022-12-18T02:52:45;14.50;;;6.90;;
37231;SDS011;23125;48.156;15.954;2022-12-18T03:00:43;17.02;;;8.13;;
37231;SDS011;23125;48.156;15.954;2022-12-18T03:03:21;14.43;;;7.60;;
37231;SDS011;23125;48.156;15.954;2022-12-18T03:05:56;20.70;;;8.40;;
37231;SDS011;23125;48.156;15.954;2022-12-18T03:08:34;16.15;;;7.65;;
37231;SDS011;23125;48.156;15.954;2022-12-18T03:11:05;15.27;;;7.40;;
37231;SDS011;23125;48.156;15.954;2022-12-18T03:13:44;21.17;;;8.55;;
37231;SDS011;23125;48.156;15.954;2022-12-18T03:16:25;20.98;;;10.15;;
37231;SDS011;23125;48.156;15.954;2022-12-18T03:18:54;19.75;;;9.63;;
37231;SDS011;23125;48.156;15.954;2022-12-18T03:21:31;18.45;;;9.13;;
37231;SDS011;23125;48.156;15.954;2022-12-18T03:24:02;16.13;;;7.85;;
37231;SDS011;23125;48.156;15.954;2022-12-18T03:26:32;20.20;;;9.00;;
37231;SDS011;23125;48.156;15.954;2022-12-18T03:29:00;19.33;;;9.35;;
37231;SDS011;23125;48.156;15.954;2022-12-18T03:31:31;17.40;;;8.32;;
37231;SDS011;23125;48.156;15.954;2022-12-18T03:34:02;17.90;;;8.93;;
37231;SDS011;23125;48.156;15.954;2022-12-18T03:36:32;16.95;;;7.40;;
37231;SDS011;23125;48.156;15.954;2022-12-18T03:38:58;18.58;;;9.07;;
37231;SDS011;23125;48.156;15.954;2022-12-18T03:44:09;21.33;;;9.35;;
37231;SDS011;23125;48.156;15.954;2022-12-18T03:49:10;19.85;;;8.82;;
37231;SDS011;23125;48.156;15.954;2022-12-18T03:51:54;18.75;;;9.40;;
37231;SDS011;23125;48.156;15.954;2022-12-18T03:54:30;16.48;;;8.35;;
37231;SDS011;23125;48.156;15.954;2022-12-18T03:57:01;19.35;;;9.02;;
37231;SDS011;23125;48.156;15.954;2022-12-18T03:59:32;14.00;;;8.02;;
37231;SDS011;23125;48.156;15.954;2022-12-18T04:01:59;17.00;;;8.25;;
37231;SDS011;23125;48.156;15.954;2022-12-18T04:04:27;18.45;;;8.68;;
37231;SDS011;23125;48.156;15.954;2022-12-18T04:06:53;21.85;;;8.85;;
37231;SDS011;23125;48.156;15.954;2022-12-18T04:09:20;16.38;;;8.73;;
37231;SDS011;23125;48.156;15.954;2022-12-18T04:11:46;18.52;;;8.88;;
37231;SDS011;23125;48.156;15.954;2022-12-18T04:14:13;17.63;;;9.20;;
37231;SDS011;23125;48.156;15.954;2022-12-18T04:16:39;20.73;;;9.65;;
37231;SDS011;23125;48.156;15.954;2022-12-18T04:19:05;18.95;;;9.60;;
37231;SDS011;23125;48.156;15.954;2022-12-18T04:21:31;20.13;;;9.55;;
37231;SDS011;23125;48.156;15.954;2022-12-18T04:23:57;20.90;;;9.48;;
37231;SDS011;23125;48.156;15.954;2022-12-18T04:26:23;18.48;;;8.55;;
37231;SDS011;23125;48.156;15.954;2022-12-18T04:28:48;16.15;;;8.98;;
37231;SDS011;23125;48.156;15.954;2022-12-18T04:31:15;20.55;;;9.13;;
37231;SDS011;23125;48.156;15.954;2022-12-18T04:33:40;19.25;;;9.35;;
37231;SDS011;23125;48.156;15.954;2022-12-18T04:36:06;22.10;;;9.10;;
37231;SDS011;23125;48.156;15.954;2022-12-18T04:38:32;17.45;;;8.82;;
37231;SDS011;23125;48.156;15.954;2022-12-18T04:40:58;18.33;;;9.05;;
37231;SDS011;23125;48.156;15.954;2022-12-18T04:43:24;18.60;;;9.07;;
37231;SDS011;23125;48.156;15.954;2022-12-18T04:45:50;17.92;;;7.45;;
37231;SDS011;23125;48.156;15.954;2022-12-18T04:48:16;16.05;;;8.02;;
37231;SDS011;23125;48.156;15.954;2022-12-18T04:50:42;14.38;;;7.32;;
37231;SDS011;23125;48.156;15.954;2022-12-18T04:53:08;15.70;;;8.40;;
37231;SDS011;23125;48.156;15.954;2022-12-18T04:55:33;14.38;;;7.03;;
37231;SDS011;23125;48.156;15.954;2022-12-18T04:57:59;17.38;;;7.75;;
37231;SDS011;23125;48.156;15.954;2022-12-18T05:00:25;15.93;;;8.05;;
37231;SDS011;23125;48.156;15.954;2022-12-18T05:02:51;12.95;;;6.97;;
37231;SDS011;23125;48.156;15.954;2022-12-18T05:05:17;15.98;;;7.57;;
37231;SDS011;23125;48.156;15.954;2022-12-18T05:07:43;14.80;;;7.45;;
37231;SDS011;23125;48.156;15.954;2022-12-18T05:10:09;19.42;;;8.23;;
37231;SDS011;23125;48.156;15.954;2022-12-18T05:12:35;16.92;;;7.78;;
37231;SDS011;23125;48.156;15.954;2022-12-18T05:15:21;17.08;;;7.85;;
37231;SDS011;23125;48.156;15.954;2022-12-18T05:17:47;13.55;;;6.88;;
37231;SDS011;23125;48.156;15.954;2022-12-18T05:20:13;16.00;;;7.78;;
37231;SDS011;23125;48.156;15.954;2022-12-18T05:22:38;16.20;;;7.65;;
37231;SDS011;23125;48.156;15.954;2022-12-18T05:25:04;17.00;;;7.97;;
37231;SDS011;23125;48.156;15.954;2022-12-18T05:27:30;16.77;;;7.70;;
37231;SDS011;23125;48.156;15.954;2022-12-18T05:29:56;14.13;;;7.38;;
37231;SDS011;23125;48.156;15.954;2022-12-18T05:32:22;16.23;;;7.38;;
37231;SDS011;23125;48.156;15.954;2022-12-18T05:34:48;14.50;;;7.00;;
37231;SDS011;23125;48.156;15.954;2022-12-18T05:37:14;12.10;;;6.72;;
37231;SDS011;23125;48.156;15.954;2022-12-18T05:39:39;13.32;;;6.82;;
37231;SDS011;23125;48.156;15.954;2022-12-18T05:42:05;13.25;;;7.45;;
37231;SDS011;23125;48.156;15.954;2022-12-18T05:44:31;13.77;;;7.38;;
37231;SDS011;23125;48.156;15.954;2022-12-18T05:46:57;14.50;;;7.22;;
37231;SDS011;23125;48.156;15.954;2022-12-18T05:49:23;17.25;;;7.55;;
37231;SDS011;23125;48.156;15.954;2022-12-18T05:51:48;15.02;;;7.07;;
37231;SDS011;23125;48.156;15.954;2022-12-18T05:54:15;18.38;;;8.43;;
37231;SDS011;23125;48.156;15.954;2022-12-18T05:56:40;16.50;;;8.10;;
37231;SDS011;23125;48.156;15.954;2022-12-18T05:59:06;13.93;;;7.25;;
37231;SDS011;23125;48.156;15.954;2022-12-18T06:01:32;17.20;;;7.90;;
37231;SDS011;23125;48.156;15.954;2022-12-18T06:03:58;16.10;;;7.15;;
37231;SDS011;23125;48.156;15.954;2022-12-18T06:06:25;12.75;;;7.05;;
37231;SDS011;23125;48.156;15.954;2022-12-18T06:08:53;12.77;;;6.13;;
37231;SDS011;23125;48.156;15.954;2022-12-18T06:11:23;13.43;;;6.93;;
37231;SDS011;23125;48.156;15.954;2022-12-18T06:13:51;14.30;;;6.72;;
37231;SDS011;23125;48.156;15.954;2022-12-18T06:16:21;14.35;;;6.95;;
37231;SDS011;23125;48.156;15.954;2022-12-18T06:18:47;12.38;;;6.97;;
37231;SDS011;23125;48.156;15.954;2022-12-18T06:21:13;14.18;;;7.18;;
37231;SDS011;23125;48.156;15.954;2022-12-18T06:23:39;15.15;;;7.03;;
37231;SDS011;23125;48.156;15.954;2022-12-18T06:26:05;17.55;;;7.53;;
37231;SDS011;23125;48.156;15.954;2022-12-18T06:28:32;21.02;;;9.30;;
37231;SDS011;23125;48.156;15.954;2022-12-18T06:30:58;21.65;;;9.50;;
37231;SDS011;23125;48.156;15.954;2022-12-18T06:33:26;21.45;;;9.23;;
37231;SDS011;23125;48.156;15.954;2022-12-18T06:35:53;19.52;;;9.23;;
37231;SDS011;23125;48.156;15.954;2022-12-18T06:38:20;20.55;;;9.02;;
37231;SDS011;23125;48.156;15.954;2022-12-18T06:40:46;17.65;;;8.18;;
37231;SDS011;23125;48.156;15.954;2022-12-18T06:43:12;19.38;;;8.82;;
37231;SDS011;23125;48.156;15.954;2022-12-18T06:45:38;18.17;;;9.68;;
37231;SDS011;23125;48.156;15.954;2022-12-18T06:48:04;18.80;;;8.60;;
37231;SDS011;23125;48.156;15.954;2022-12-18T06:50:30;19.20;;;8.65;;
37231;SDS011;23125;48.156;15.954;2022-12-18T06:52:56;19.67;;;9.15;;
37231;SDS011;23125;48.156;15.954;2022-12-18T06:55:22;19.38;;;8.73;;
37231;SDS011;23125;48.156;15.954;2022-12-18T06:57:47;27.33;;;11.40;;
37231;SDS011;23125;48.156;15.954;2022-12-18T07:00:14;44.42;;;18.88;;
37231;SDS011;23125;48.156;15.954;2022-12-18T07:02:40;42.60;;;15.88;;
37231;SDS011;23125;48.156;15.954;2022-12-18T07:05:06;40.58;;;15.52;;
37231;SDS011;23125;48.156;15.954;2022-12-18T07:07:33;60.65;;;22.50;;
37231;SDS011;23125;48.156;15.954;2022-12-18T07:09:59;22.70;;;9.85;;
37231;SDS011;23125;48.156;15.954;2022-12-18T07:12:28;18.40;;;8.63;;
37231;SDS011;23125;48.156;15.954;2022-12-18T07:14:54;20.10;;;9.68;;
37231;SDS011;23125;48.156;15.954;2022-12-18T07:17:20;20.02;;;9.70;;
37231;SDS011;23125;48.156;15.954;2022-12-18T07:19:46;19.02;;;9.35;;
37231;SDS011;23125;48.156;15.954;2022-12-18T07:22:12;21.45;;;10.73;;
37231;SDS011;23125;48.156;15.954;2022-12-18T07:24:38;23.55;;;11.77;;
37231;SDS011;23125;48.156;15.954;2022-12-18T07:27:04;27.27;;;12.15;;
37231;SDS011;23125;48.156;15.954;2022-12-18T07:29:29;23.27;;;11.20;;
37231;SDS011;23125;48.156;15.954;2022-12-18T07:31:56;19.13;;;9.68;;
37231;SDS011;23125;48.156;15.954;2022-12-18T07:34:21;22.40;;;11.40;;
37231;SDS011;23125;48.156;15.954;2022-12-18T07:36:47;22.17;;;11.30;;
37231;SDS011;23125;48.156;15.954;2022-12-18T07:39:13;20.65;;;10.02;;
37231;SDS011;23125;48.156;15.954;2022-12-18T07:41:39;22.02;;;9.48;;
37231;SDS011;23125;48.156;15.954;2022-12-18T07:44:11;20.55;;;9.13;;
37231;SDS011;23125;48.156;15.954;2022-12-18T07:46:38;17.98;;;8.82;;
37231;SDS011;23125;48.156;15.954;2022-12-18T07:49:04;17.48;;;9.32;;
37231;SDS011;23125;48.156;15.954;2022-12-18T07:51:30;20.70;;;10.02;;
37231;SDS011;23125;48.156;15.954;2022-12-18T07:53:56;20.95;;;10.13;;
37231;SDS011;23125;48.156;15.954;2022-12-18T07:56:22;24.23;;;10.65;;
37231;SDS011;23125;48.156;15.954;2022-12-18T07:58:48;20.33;;;9.80;;
37231;SDS011;23125;48.156;15.954;2022-12-18T08:01:14;22.35;;;10.95;;
37231;SDS011;23125;48.156;15.954;2022-12-18T08:03:40;47.25;;;21.52;;
37231;SDS011;23125;48.156;15.954;2022-12-18T08:06:07;36.28;;;15.95;;
37231;SDS011;23125;48.156;15.954;2022-12-18T08:08:34;33.83;;;14.82;;
37231;SDS011;23125;48.156;15.954;2022-12-18T08:11:01;39.45;;;16.33;;
37231;SDS011;23125;48.156;15.954;2022-12-18T08:13:27;25.98;;;14.48;;
37231;SDS011;23125;48.156;15.954;2022-12-18T08:16:01;27.17;;;13.93;;
37231;SDS011;23125;48.156;15.954;2022-12-18T08:18:35;25.33;;;12.73;;
37231;SDS011;23125;48.156;15.954;2022-12-18T08:21:11;28.88;;;14.68;;
37231;SDS011;23125;48.156;15.954;2022-12-18T08:23:43;53.85;;;28.40;;
37231;SDS011;23125;48.156;15.954;2022-12-18T08:26:10;23.98;;;12.57;;
37231;SDS011;23125;48.156;15.954;2022-12-18T08:28:37;28.70;;;15.10;;
37231;SDS011;23125;48.156;15.954;2022-12-18T08:31:03;34.47;;;17.70;;
37231;SDS011;23125;48.156;15.954;2022-12-18T08:33:29;33.20;;;16.98;;
37231;SDS011;23125;48.156;15.954;2022-12-18T08:35:55;35.20;;;18.88;;
37231;SDS011;23125;48.156;15.954;2022-12-18T08:38:21;55.65;;;35.03;;
37231;SDS011;23125;48.156;15.954;2022-12-18T08:40:48;25.40;;;13.27;;
37231;SDS011;23125;48.156;15.954;2022-12-18T08:43:13;59.20;;;33.92;;
37231;SDS011;23125;48.156;15.954;2022-12-18T08:45:58;39.30;;;21.88;;
37231;SDS011;23125;48.156;15.954;2022-12-18T08:48:24;25.70;;;15.18;;
37231;SDS011;23125;48.156;15.954;2022-12-18T08:50:59;21.58;;;11.88;;
37231;SDS011;23125;48.156;15.954;2022-12-18T08:53:25;24.58;;;12.18;;
37231;SDS011;23125;48.156;15.954;2022-12-18T08:55:52;22.42;;;11.43;;
37231;SDS011;23125;48.156;15.954;2022-12-18T08:58:18;22.05;;;12.10;;
37231;SDS011;23125;48.156;15.954;2022-12-18T09:00:44;21.27;;;13.13;;
37231;SDS011;23125;48.156;15.954;2022-12-18T09:03:17;18.65;;;11.77;;
37231;SDS011;23125;48.156;15.954;2022-12-18T09:05:47;23.08;;;14.05;;
37231;SDS011;23125;48.156;15.954;2022-12-18T09:08:13;25.35;;;14.25;;
37231;SDS011;23125;48.156;15.954;2022-12-18T09:10:43;23.25;;;13.65;;
37231;SDS011;23125;48.156;15.954;2022-12-18T09:13:10;25.55;;;14.20;;
37231;SDS011;23125;48.156;15.954;2022-12-18T09:15:43;24.38;;;16.02;;
37231;SDS011;23125;48.156;15.954;2022-12-18T09:18:11;25.85;;;13.95;;
37231;SDS011;23125;48.156;15.954;2022-12-18T09:20:37;23.67;;;13.50;;
37231;SDS011;23125;48.156;15.954;2022-12-18T09:23:04;23.50;;;14.50;;
37231;SDS011;23125;48.156;15.954;2022-12-18T09:25:31;23.48;;;14.55;;
37231;SDS011;23125;48.156;15.954;2022-12-18T09:28:01;17.95;;;9.95;;
37231;SDS011;23125;48.156;15.954;2022-12-18T09:30:28;17.10;;;8.60;;
37231;SDS011;23125;48.156;15.954;2022-12-18T09:32:54;16.42;;;8.65;;
37231;SDS011;23125;48.156;15.954;2022-12-18T09:35:20;17.88;;;8.32;;
37231;SDS011;23125;48.156;15.954;2022-12-18T09:37:46;14.35;;;6.78;;
37231;SDS011;23125;48.156;15.954;2022-12-18T09:40:16;15.48;;;7.30;;
37231;SDS011;23125;48.156;15.954;2022-12-18T09:42:45;8.45;;;4.50;;
37231;SDS011;23125;48.156;15.954;2022-12-18T09:45:16;15.85;;;7.43;;
37231;SDS011;23125;48.156;15.954;2022-12-18T09:47:43;14.30;;;7.50;;
37231;SDS011;23125;48.156;15.954;2022-12-18T09:52:54;19.65;;;11.23;;
37231;SDS011;23125;48.156;15.954;2022-12-18T09:57:53;25.60;;;13.07;;
37231;SDS011;23125;48.156;15.954;2022-12-18T10:00:26;19.80;;;10.90;;
37231;SDS011;23125;48.156;15.954;2022-12-18T10:02:53;21.15;;;10.13;;
37231;SDS011;23125;48.156;15.954;2022-12-18T10:05:43;22.23;;;11.75;;
37231;SDS011;23125;48.156;15.954;2022-12-18T10:08:58;21.55;;;10.82;;
37231;SDS011;23125;48.156;15.954;2022-12-18T10:11:32;20.92;;;10.88;;
37231;SDS011;23125;48.156;15.954;2022-12-18T10:23:39;17.58;;;8.68;;
37231;SDS011;23125;48.156;15.954;2022-12-18T10:25:55;16.38;;;6.90;;
37231;SDS011;23125;48.156;15.954;2022-12-18T10:28:29;19.40;;;8.85;;
37231;SDS011;23125;48.156;15.954;2022-12-18T10:30:57;16.80;;;6.97;;
37231;SDS011;23125;48.156;15.954;2022-12-18T10:33:24;16.27;;;8.43;;
37231;SDS011;23125;48.156;15.954;2022-12-18T10:35:55;14.93;;;7.72;;
37231;SDS011;23125;48.156;15.954;2022-12-18T10:38:22;17.38;;;8.48;;
37231;SDS011;23125;48.156;15.954;2022-12-18T10:41:01;11.25;;;6.47;;
37231;SDS011;23125;48.156;15.954;2022-12-18T10:43:48;18.55;;;8.02;;
37231;SDS011;23125;48.156;15.954;2022-12-18T10:46:34;18.08;;;9.27;;
37231;SDS011;23125;48.156;15.954;2022-12-18T10:49:00;16.75;;;9.48;;
37231;SDS011;23125;48.156;15.954;2022-12-18T10:51:27;17.60;;;9.10;;
37231;SDS011;23125;48.156;15.954;2022-12-18T10:56:26;16.60;;;8.90;;
37231;SDS011;23125;48.156;15.954;2022-12-18T10:58:58;17.80;;;9.27;;
37231;SDS011;23125;48.156;15.954;2022-12-18T11:02:12;20.30;;;9.18;;
37231;SDS011;23125;48.156;15.954;2022-12-18T11:04:23;15.50;;;8.45;;
37231;SDS011;23125;48.156;15.954;2022-12-18T11:06:58;17.90;;;8.98;;
37231;SDS011;23125;48.156;15.954;2022-12-18T11:09:27;22.33;;;10.20;;
37231;SDS011;23125;48.156;15.954;2022-12-18T11:11:55;18.88;;;8.98;;
37231;SDS011;23125;48.156;15.954;2022-12-18T11:14:28;19.35;;;8.48;;
37231;SDS011;23125;48.156;15.954;2022-12-18T11:16:59;20.50;;;10.07;;
37231;SDS011;23125;48.156;15.954;2022-12-18T11:19:39;16.48;;;9.55;;
37231;SDS011;23125;48.156;15.954;2022-12-18T11:22:23;19.48;;;8.77;;
37231;SDS011;23125;48.156;15.954;2022-12-18T11:24:59;16.83;;;8.48;;
37231;SDS011;23125;48.156;15.954;2022-12-18T11:27:25;17.70;;;9.05;;
37231;SDS011;23125;48.156;15.954;2022-12-18T11:30:06;20.08;;;9.50;;
37231;SDS011;23125;48.156;15.954;2022-12-18T11:32:49;21.05;;;9.88;;
37231;SDS011;23125;48.156;15.954;2022-12-18T11:35:32;14.93;;;8.15;;
37231;SDS011;23125;48.156;15.954;2022-12-18T11:38:37;16.63;;;8.45;;
37231;SDS011;23125;48.156;15.954;2022-12-18T11:44:27;19.95;;;9.57;;
37231;SDS011;23125;48.156;15.954;2022-12-18T11:46:59;19.10;;;9.85;;
37231;SDS011;23125;48.156;15.954;2022-12-18T11:52:06;23.35;;;10.70;;
37231;SDS011;23125;48.156;15.954;2022-12-18T11:54:47;21.58;;;10.25;;
37231;SDS011;23125;48.156;15.954;2022-12-18T12:00:29;18.05;;;9.55;;
37231;SDS011;23125;48.156;15.954;2022-12-18T12:10:52;19.17;;;9.90;;
37231;SDS011;23125;48.156;15.954;2022-12-18T12:21:42;20.25;;;10.32;;
37231;SDS011;23125;48.156;15.954;2022-12-18T12:38:09;22.38;;;10.77;;
37231;SDS011;23125;48.156;15.954;2022-12-18T12:40:42;20.63;;;10.68;;
37231;SDS011;23125;48.156;15.954;2022-12-18T12:43:28;23.23;;;10.27;;
37231;SDS011;23125;48.156;15.954;2022-12-18T12:46:13;22.15;;;11.10;;
37231;SDS011;23125;48.156;15.954;2022-12-18T12:51:16;22.30;;;10.27;;
37231;SDS011;23125;48.156;15.954;2022-12-18T12:53:51;21.30;;;11.68;;
37231;SDS011;23125;48.156;15.954;2022-12-18T12:56:20;21.50;;;10.45;;
37231;SDS011;23125;48.156;15.954;2022-12-18T12:58:51;21.08;;;9.82;;
37231;SDS011;23125;48.156;15.954;2022-12-18T13:10:14;20.25;;;9.90;;
37231;SDS011;23125;48.156;15.954;2022-12-18T13:18:18;23.15;;;11.75;;
37231;SDS011;23125;48.156;15.954;2022-12-18T13:20:50;22.60;;;12.25;;
37231;SDS011;23125;48.156;15.954;2022-12-18T13:23:39;21.88;;;11.35;;
37231;SDS011;23125;48.156;15.954;2022-12-18T13:31:58;23.10;;;10.75;;
37231;SDS011;23125;48.156;15.954;2022-12-18T13:34:16;25.90;;;11.90;;
37231;SDS011;23125;48.156;15.954;2022-12-18T13:36:47;19.27;;;9.20;;
37231;SDS011;23125;48.156;15.954;2022-12-18T13:41:44;21.57;;;11.37;;
37231;SDS011;23125;48.156;15.954;2022-12-18T13:47:01;21.77;;;10.32;;
37231;SDS011;23125;48.156;15.954;2022-12-18T13:52:18;21.00;;;11.18;;
37231;SDS011;23125;48.156;15.954;2022-12-18T13:54:49;24.08;;;11.32;;
37231;SDS011;23125;48.156;15.954;2022-12-18T13:59:57;25.10;;;10.95;;
37231;SDS011;23125;48.156;15.954;2022-12-18T14:02:24;41.25;;;15.52;;
37231;SDS011;23125;48.156;15.954;2022-12-18T14:04:52;20.33;;;11.10;;
37231;SDS011;23125;48.156;15.954;2022-12-18T14:07:25;23.23;;;11.98;;
37231;SDS011;23125;48.156;15.954;2022-12-18T14:09:54;20.17;;;10.88;;
37231;SDS011;23125;48.156;15.954;2022-12-18T14:20:25;19.50;;;9.32;;
37231;SDS011;23125;48.156;15.954;2022-12-18T14:22:52;25.35;;;12.32;;
37231;SDS011;23125;48.156;15.954;2022-12-18T14:25:21;23.15;;;12.05;;
37231;SDS011;23125;48.156;15.954;2022-12-18T14:30:35;22.48;;;10.73;;
37231;SDS011;23125;48.156;15.954;2022-12-18T14:33:04;23.55;;;11.60;;
37231;SDS011;23125;48.156;15.954;2022-12-18T14:38:31;25.00;;;12.73;;
37231;SDS011;23125;48.156;15.954;2022-12-18T14:41:05;18.95;;;9.80;;
37231;SDS011;23125;48.156;15.954;2022-12-18T14:43:36;22.92;;;11.95;;
37231;SDS011;23125;48.156;15.954;2022-12-18T14:46:27;22.30;;;11.55;;
37231;SDS011;23125;48.156;15.954;2022-12-18T14:49:00;26.50;;;12.35;;
37231;SDS011;23125;48.156;15.954;2022-12-18T14:51:30;24.02;;;12.68;;
37231;SDS011;23125;48.156;15.954;2022-12-18T14:53:59;26.52;;;13.50;;
37231;SDS011;23125;48.156;15.954;2022-12-18T14:56:37;26.52;;;12.98;;
37231;SDS011;23125;48.156;15.954;2022-12-18T14:59:13;19.85;;;10.05;;
37231;SDS011;23125;48.156;15.954;2022-12-18T15:04:24;23.40;;;10.90;;
37231;SDS011;23125;48.156;15.954;2022-12-18T15:09:29;22.20;;;11.18;;
37231;SDS011;23125;48.156;15.954;2022-12-18T15:11:56;19.23;;;10.70;;
37231;SDS011;23125;48.156;15.954;2022-12-18T15:16:55;19.55;;;11.45;;
37231;SDS011;23125;48.156;15.954;2022-12-18T15:19:25;23.42;;;12.43;;
37231;SDS011;23125;48.156;15.954;2022-12-18T15:22:26;26.20;;;12.90;;
37231;SDS011;23125;48.156;15.954;2022-12-18T15:24:54;28.10;;;14.07;;
37231;SDS011;23125;48.156;15.954;2022-12-18T15:27:31;30.58;;;15.70;;
37231;SDS011;23125;48.156;15.954;2022-12-18T15:30:15;28.60;;;15.30;;
37231;SDS011;23125;48.156;15.954;2022-12-18T15:32:42;32.10;;;16.40;;
37231;SDS011;23125;48.156;15.954;2022-12-18T15:37:34;35.25;;;16.45;;
37231;SDS011;23125;48.156;15.954;2022-12-18T15:40:00;38.45;;;17.95;;
37231;SDS011;23125;48.156;15.954;2022-12-18T15:42:28;41.60;;;19.48;;
37231;SDS011;23125;48.156;15.954;2022-12-18T15:45:13;36.58;;;17.20;;
37231;SDS011;23125;48.156;15.954;2022-12-18T15:47:40;36.28;;;17.90;;
37231;SDS011;23125;48.156;15.954;2022-12-18T15:50:09;40.42;;;20.15;;
37231;SDS011;23125;48.156;15.954;2022-12-18T15:52:41;39.50;;;18.77;;
37231;SDS011;23125;48.156;15.954;2022-12-18T15:55:13;35.42;;;16.45;;
37231;SDS011;23125;48.156;15.954;2022-12-18T15:57:58;37.05;;;16.65;;
37231;SDS011;23125;48.156;15.954;2022-12-18T16:00:24;35.47;;;16.77;;
37231;SDS011;23125;48.156;15.954;2022-12-18T16:02:51;33.70;;;17.38;;
37231;SDS011;23125;48.156;15.954;2022-12-18T16:05:18;31.42;;;14.85;;
37231;SDS011;23125;48.156;15.954;2022-12-18T16:07:47;37.10;;;18.45;;
37231;SDS011;23125;48.156;15.954;2022-12-18T16:10:13;35.33;;;17.10;;
37231;SDS011;23125;48.156;15.954;2022-12-18T16:12:39;35.50;;;17.13;;
37231;SDS011;23125;48.156;15.954;2022-12-18T16:15:07;30.02;;;14.93;;
37231;SDS011;23125;48.156;15.954;2022-12-18T16:17:35;34.97;;;17.15;;
37231;SDS011;23125;48.156;15.954;2022-12-18T16:20:01;35.53;;;18.23;;
37231;SDS011;23125;48.156;15.954;2022-12-18T16:22:27;37.40;;;17.90;;
37231;SDS011;23125;48.156;15.954;2022-12-18T16:24:55;30.55;;;16.33;;
37231;SDS011;23125;48.156;15.954;2022-12-18T16:27:22;34.25;;;17.27;;
37231;SDS011;23125;48.156;15.954;2022-12-18T16:29:49;34.83;;;17.42;;
37231;SDS011;23125;48.156;15.954;2022-12-18T16:32:17;35.03;;;15.75;;
37231;SDS011;23125;48.156;15.954;2022-12-18T16:34:45;16.35;;;6.50;;
37231;SDS011;23125;48.156;15.954;2022-12-18T16:37:12;29.05;;;15.57;;
37231;SDS011;23125;48.156;15.954;2022-12-18T16:39:39;33.17;;;15.98;;
37231;SDS011;23125;48.156;15.954;2022-12-18T16:42:09;34.97;;;17.05;;
37231;SDS011;23125;48.156;15.954;2022-12-18T16:44:45;31.20;;;14.63;;
37231;SDS011;23125;48.156;15.954;2022-12-18T16:47:12;30.53;;;16.33;;
37231;SDS011;23125;48.156;15.954;2022-12-18T16:49:39;31.48;;;15.15;;
37231;SDS011;23125;48.156;15.954;2022-12-18T16:52:05;32.97;;;15.77;;
37231;SDS011;23125;48.156;15.954;2022-12-18T16:54:33;36.85;;;16.58;;
37231;SDS011;23125;48.156;15.954;2022-12-18T16:57:00;30.17;;;14.43;;
37231;SDS011;23125;48.156;15.954;2022-12-18T16:59:28;30.90;;;15.25;;
37231;SDS011;23125;48.156;15.954;2022-12-18T17:01:55;32.28;;;15.70;;